Time;durP1;ratioP1;P1;durP2;ratioP2;P2;SDS_P1;SDS_P2;PMS_P1;PMS_P2;Temp;Humidity;BMP_temperature;BMP_pressure;BME280_temperature;BME280_humidity;BME280_pressure;Samples;Min_cycle;Max_cycle;Signal;HPM_P1;HPM_P2
2022/11/18 00:00:04;;;;;;;72.32;39.90;;;;;;;12.96;86.28;99668.25;4828789;29;20661;-82
2022/11/18 00:02:39;;;;;;;71.55;40.05;;;;;;;12.92;86.48;99659.78;4829268;29;20153;-81
2022/11/18 00:05:11;;;;;;;68.43;37.55;;;;;;;13.03;86.83;99675.38;4837785;29;20640;-85
2022/11/18 00:07:46;;;;;;;65.85;36.92;;;;;;;12.98;86.72;99667.06;4828536;29;20048;-80
2022/11/18 00:11:06;;;;;;;69.55;40.28;;;;;;;12.70;86.94;99639.25;4834583;29;20335;-83
2022/11/18 00:16:30;;;;;;;70.03;38.85;;;;;;;12.83;87.13;99671.47;4828997;29;20418;-83
2022/11/18 00:19:03;;;;;;;76.75;42.30;;;;;;;12.62;87.09;99637.44;4842700;29;20444;-82
2022/11/18 00:21:29;;;;;;;75.43;41.03;;;;;;;12.89;87.17;99668.13;4831183;29;20402;-81
2022/11/18 00:23:59;;;;;;;80.57;42.60;;;;;;;12.68;87.50;99644.75;4835857;29;20483;-82
2022/11/18 00:26:40;;;;;;;73.43;40.95;;;;;;;12.86;87.79;99673.78;4839904;29;20099;-81
2022/11/18 00:29:12;;;;;;;70.50;39.85;;;;;;;12.62;87.72;99637.44;4843909;29;20352;-81
2022/11/18 00:31:39;;;;;;;82.82;43.53;;;;;;;12.17;87.85;99567.09;4862912;29;21075;-83
2022/11/18 00:34:11;;;;;;;74.25;41.33;;;;;;;12.73;87.33;99641.56;4865522;29;20048;-82
2022/11/18 00:36:39;;;;;;;79.80;41.65;;;;;;;12.94;87.64;99664.94;4850047;29;20060;-81
2022/11/18 00:39:14;;;;;;;83.60;44.25;;;;;;;12.74;87.35;99619.25;4857715;29;20260;-83
2022/11/18 00:44:29;;;;;;;77.10;43.53;;;;;;;12.80;87.76;99643.38;4859169;29;20067;-82
2022/11/18 00:47:03;;;;;;;78.43;42.72;;;;;;;12.88;87.68;99654.97;4885456;29;20310;-83
2022/11/18 00:49:43;;;;;;;87.10;45.03;;;;;;;12.63;88.35;99601.84;4879700;29;20349;-84
2022/11/18 00:52:21;;;;;;;90.72;43.85;;;;;;;12.78;87.89;99633.88;4879785;29;20068;-83
2022/11/18 00:54:48;;;;;;;59.67;34.55;;;;;;;12.95;87.76;99655.94;4889751;29;20096;-82
2022/11/18 00:57:15;;;;;;;87.05;45.40;;;;;;;12.97;87.39;99657.44;4892486;29;20530;-82
2022/11/18 00:59:43;;;;;;;85.38;46.17;;;;;;;12.99;87.00;99668.75;4880376;29;20056;-81
2022/11/18 01:02:10;;;;;;;91.22;45.83;;;;;;;12.98;87.84;99677.72;4883602;29;20130;-81
2022/11/18 01:04:37;;;;;;;88.57;44.95;;;;;;;12.73;87.27;99626.41;4893694;29;20147;-81
2022/11/18 01:07:05;;;;;;;83.43;46.38;;;;;;;12.89;87.26;99651.28;4888621;29;20056;-82
2022/11/18 01:09:32;;;;;;;93.75;49.15;;;;;;;12.74;87.40;99633.41;4892818;29;20796;-82
2022/11/18 01:14:44;;;;;;;96.95;50.45;;;;;;;12.83;87.44;99658.16;4872399;29;20260;-82
2022/11/18 01:17:11;;;;;;;106.53;55.50;;;;;;;12.84;86.98;99659.84;4880939;29;20457;-82
2022/11/18 01:19:40;;;;;;;114.60;55.72;;;;;;;12.96;86.38;99673.56;4873276;29;20056;-80
2022/11/18 01:22:07;;;;;;;111.68;55.08;;;;;;;12.93;86.67;99674.75;4865663;29;20316;-80
2022/11/18 01:24:36;;;;;;;114.55;56.90;;;;;;;12.84;87.35;99670.50;4871713;29;20133;-80
2022/11/18 01:27:09;;;;;;;99.90;48.28;;;;;;;12.81;87.75;99671.63;4885338;29;20400;-81
2022/11/18 01:29:43;;;;;;;118.03;57.40;;;;;;;12.75;87.75;99656.38;4884917;29;20797;-80
2022/11/18 01:32:23;;;;;;;120.75;57.63;;;;;;;12.73;87.88;99657.56;4860151;29;20546;-82
2022/11/18 01:34:51;;;;;;;118.72;57.03;;;;;;;12.07;87.66;99551.34;4879633;29;20146;-82
2022/11/18 01:37:22;;;;;;;127.55;59.13;;;;;;;12.76;87.32;99670.50;4863835;29;20292;-80
2022/11/18 01:39:55;;;;;;;124.13;59.20;;;;;;;12.70;87.89;99669.38;4885531;29;20056;-81
2022/11/18 01:42:25;;;;;;;127.55;59.95;;;;;;;12.76;88.22;99675.84;4875095;29;20245;-81
2022/11/18 01:45:08;;;;;;;137.02;63.35;;;;;;;12.54;88.13;99643.63;4889808;29;20444;-82
2022/11/18 01:47:44;;;;;;;131.32;60.50;;;;;;;12.85;87.98;99676.66;4888411;29;20056;-79
2022/11/18 01:50:18;;;;;;;148.50;65.53;;;;;;;12.73;88.23;99652.22;4891682;29;20623;-81
2022/11/18 01:52:46;;;;;;;152.35;62.88;;;;;;;12.88;88.33;99671.78;4891142;29;20509;-79
2022/11/18 01:55:25;;;;;;;146.30;62.78;;;;;;;12.88;87.89;99663.78;4890983;29;20356;-80
2022/11/18 01:57:58;;;;;;;148.52;65.30;;;;;;;12.75;87.78;99644.91;4888637;29;20060;-82
2022/11/18 02:00:25;;;;;;;161.20;66.25;;;;;;;12.81;88.20;99654.84;4887619;29;20926;-80
2022/11/18 02:02:52;;;;;;;155.63;67.03;;;;;;;12.76;87.97;99654.53;4882423;29;20383;-80
2022/11/18 02:05:20;;;;;;;176.85;66.00;;;;;;;12.55;88.48;99613.38;4879592;29;20056;-81
2022/11/18 02:07:50;;;;;;;150.95;60.63;;;;;;;12.65;88.81;99607.81;4880111;29;20060;-82
2022/11/18 02:10:20;;;;;;;161.82;67.95;;;;;;;12.16;88.81;99552.13;4883887;29;20949;-81
2022/11/18 02:12:49;;;;;;;176.07;66.97;;;;;;;12.09;89.07;99533.38;4895220;29;20064;-79
2022/11/18 02:15:23;;;;;;;199.77;64.68;;;;;;;12.54;89.07;99590.41;4882107;29;20413;-80
2022/11/18 02:18:31;;;;;;;168.82;66.00;;;;;;;12.58;89.22;99597.03;4883542;29;20048;-79
2022/11/18 02:21:30;;;;;;;156.30;60.70;;;;;;;12.60;89.73;99584.38;4887107;29;20063;-80
2022/11/18 02:24:25;;;;;;;149.60;62.22;;;;;;;12.67;90.01;99583.66;4894632;29;20299;-80
2022/11/18 02:27:20;;;;;;;141.18;57.85;;;;;;;12.74;89.89;99584.63;4895358;29;20052;-80
2022/11/18 02:29:52;;;;;;;153.98;58.53;;;;;;;12.27;88.94;99516.34;4876628;29;20064;-81
2022/11/18 02:32:27;;;;;;;128.98;55.38;;;;;;;12.52;89.78;99575.59;4878598;29;20151;-79
2022/11/18 02:35:10;;;;;;;142.27;59.13;;;;;;;12.35;90.43;99532.25;4876976;29;20052;-80
2022/11/18 02:37:53;;;;;;;177.32;63.60;;;;;;;11.45;90.81;99375.72;4892307;29;20065;-80
2022/11/18 02:40:37;;;;;;;159.27;62.30;;;;;;;12.55;89.54;99522.84;4891438;29;20150;-81
2022/11/18 02:43:08;;;;;;;145.38;59.80;;;;;;;12.63;89.62;99534.47;4891365;29;20135;-80
2022/11/18 02:45:37;;;;;;;149.68;59.47;;;;;;;12.54;89.98;99515.84;4879074;29;20558;-79
2022/11/18 02:48:09;;;;;;;138.88;58.60;;;;;;;12.05;90.36;99427.50;4877551;29;20060;-79
2022/11/18 02:50:41;;;;;;;147.13;60.85;;;;;;;12.41;91.00;99483.66;4879356;29;20059;-82
2022/11/18 02:53:12;;;;;;;150.52;62.72;;;;;;;12.51;91.47;99494.91;4875369;29;20139;-81
2022/11/18 02:55:41;;;;;;;133.48;54.60;;;;;;;12.42;91.05;99474.66;4884954;29;20051;-81
2022/11/18 02:58:12;;;;;;;113.25;50.90;;;;;;;12.00;90.78;99393.44;4899188;29;20815;-81
2022/11/18 03:00:39;;;;;;;106.60;46.13;;;;;;;12.05;90.70;99415.03;4896743;29;20528;-82
2022/11/18 03:03:27;;;;;;;102.63;45.08;;;;;;;12.48;90.38;99484.63;4896190;29;20282;-81
2022/11/18 03:06:23;;;;;;;118.83;48.17;;;;;;;12.53;90.76;99492.91;4894694;29;20954;-83
2022/11/18 03:09:02;;;;;;;109.90;51.63;;;;;;;12.57;90.37;99493.38;4895152;29;20055;-78
2022/11/18 03:11:38;;;;;;;116.93;53.13;;;;;;;12.61;90.54;99503.50;4879337;29;20316;-81
2022/11/18 03:14:15;;;;;;;114.55;50.03;;;;;;;12.60;90.17;99485.88;4890224;29;20060;-81
2022/11/18 03:16:55;;;;;;;104.35;48.08;;;;;;;12.60;90.18;99483.22;4891565;29;20312;-81
2022/11/18 03:19:40;;;;;;;107.10;46.47;;;;;;;12.59;89.71;99491.38;4876187;29;20521;-80
2022/11/18 03:22:22;;;;;;;106.30;47.88;;;;;;;12.57;90.17;99488.03;4874816;29;20194;-79
2022/11/18 03:25:12;;;;;;;104.18;49.13;;;;;;;12.55;90.00;99484.75;4890708;29;20245;-81
2022/11/18 03:27:55;;;;;;;99.47;45.80;;;;;;;12.53;89.74;99482.25;4890641;29;20436;-79
2022/11/18 03:30:26;;;;;;;98.45;45.13;;;;;;;12.54;89.32;99483.91;4890486;29;20131;-80
2022/11/18 03:32:59;;;;;;;103.68;44.58;;;;;;;12.07;89.17;99413.00;4896216;29;20576;-79
2022/11/18 03:35:32;;;;;;;82.07;39.80;;;;;;;12.54;88.69;99494.56;4890622;29;20170;-81
2022/11/18 03:38:14;;;;;;;95.68;43.30;;;;;;;12.46;88.04;99510.59;4874659;29;20056;-80
2022/11/18 03:40:47;;;;;;;93.72;43.30;;;;;;;12.48;89.46;99531.72;4873797;29;20166;-79
2022/11/18 03:43:23;;;;;;;92.22;39.78;;;;;;;12.44;89.60;99531.22;4878007;29;20055;-80
2022/11/18 03:46:12;;;;;;;102.13;44.50;;;;;;;12.59;89.29;99550.75;4898210;29;20481;-78
2022/11/18 03:48:48;;;;;;;94.90;41.67;;;;;;;12.54;88.72;99553.13;4875195;29;20599;-81
2022/11/18 03:51:22;;;;;;;108.60;45.25;;;;;;;12.51;88.67;99558.81;4879072;29;20410;-81
2022/11/18 03:54:00;;;;;;;112.97;46.42;;;;;;;12.52;88.80;99554.31;4895347;29;20578;-80
2022/11/18 03:56:38;;;;;;;101.70;45.38;;;;;;;12.34;89.86;99530.63;4880156;29;20464;-79
2022/11/18 03:59:21;;;;;;;129.10;54.30;;;;;;;12.45;89.75;99540.88;4878540;29;20158;-80
2022/11/18 04:01:55;;;;;;;144.27;52.72;;;;;;;12.46;90.26;99539.03;4876735;29;20062;-79
2022/11/18 04:04:26;;;;;;;122.25;51.17;;;;;;;12.47;90.12;99546.00;4880485;29;20052;-80
2022/11/18 04:07:04;;;;;;;146.07;55.97;;;;;;;12.46;90.30;99526.56;4876838;29;20895;-79
2022/11/18 04:09:41;;;;;;;117.78;53.05;;;;;;;12.25;90.16;99489.91;4889629;29;20058;-79
2022/11/18 04:12:12;;;;;;;116.80;51.13;;;;;;;12.45;90.07;99508.09;4879105;29;20548;-78
2022/11/18 04:14:42;;;;;;;113.22;48.58;;;;;;;12.56;89.63;99516.50;4878125;29;20668;-78
2022/11/18 04:17:13;;;;;;;123.35;53.10;;;;;;;12.61;89.81;99508.00;4888314;29;20075;-80
2022/11/18 04:19:40;;;;;;;105.63;47.03;;;;;;;12.54;89.51;99507.88;4872317;29;20074;-81
2022/11/18 04:22:08;;;;;;;107.07;49.50;;;;;;;12.22;89.81;99449.53;4873588;29;20740;-80
2022/11/18 04:24:35;;;;;;;102.07;47.75;;;;;;;12.44;89.73;99493.97;4877035;29;20142;-82
2022/11/18 04:27:03;;;;;;;110.50;46.92;;;;;;;12.41;90.25;99483.66;4872347;29;20070;-80
2022/11/18 04:29:37;;;;;;;93.60;42.55;;;;;;;12.45;90.24;99487.66;4873678;29;20162;-80
2022/11/18 04:32:08;;;;;;;105.30;46.83;;;;;;;12.42;90.46;99472.00;4877902;29;20143;-80
2022/11/18 04:34:35;;;;;;;104.82;44.67;;;;;;;12.42;90.06;99468.53;4875871;29;20150;-80
2022/11/18 04:37:03;;;;;;;103.00;46.40;;;;;;;12.31;90.59;99467.94;4874094;29;20502;-81
2022/11/18 04:39:29;;;;;;;105.88;45.47;;;;;;;12.39;91.04;99477.69;4872973;29;20491;-80
2022/11/18 04:41:56;;;;;;;95.50;46.03;;;;;;;12.49;90.31;99478.28;4874693;29;20280;-82
2022/11/18 04:44:27;;;;;;;116.05;49.15;;;;;;;12.36;89.55;99464.75;4876615;29;20146;-81
2022/11/18 04:46:58;;;;;;;104.60;47.30;;;;;;;12.14;89.42;99459.19;4876357;29;20171;-79
2022/11/18 04:49:26;;;;;;;102.25;47.72;;;;;;;12.28;89.27;99484.25;4869703;29;20305;-80
2022/11/18 04:51:54;;;;;;;112.55;50.38;;;;;;;12.58;89.18;99521.66;4873687;29;20119;-80
2022/11/18 04:54:22;;;;;;;120.72;52.33;;;;;;;12.63;88.93;99507.84;4877461;29;20353;-80
2022/11/18 04:56:57;;;;;;;91.10;42.13;;;;;;;12.10;88.95;99430.47;4874913;29;20582;-80
2022/11/18 04:59:26;;;;;;;118.57;54.80;;;;;;;12.22;89.32;99446.84;4876518;29;20052;-83
2022/11/18 05:01:57;;;;;;;112.68;50.78;;;;;;;12.30;89.24;99484.88;4877379;29;20059;-80
2022/11/18 05:04:26;;;;;;;119.32;52.42;;;;;;;11.46;89.73;99372.91;4870852;29;20477;-78
2022/11/18 05:06:53;;;;;;;134.63;57.35;;;;;;;12.49;89.98;99525.38;4874609;29;20580;-80
2022/11/18 05:09:20;;;;;;;118.28;54.97;;;;;;;12.13;89.09;99467.34;4894859;29;20054;-79
2022/11/18 05:14:34;;;;;;;114.60;53.60;;;;;;;12.39;89.18;99545.06;4875922;29;20513;-79
2022/11/18 05:17:06;;;;;;;115.50;50.55;;;;;;;12.65;89.11;99586.53;4889695;29;20056;-77
2022/11/18 05:19:39;;;;;;;120.05;52.72;;;;;;;12.52;88.35;99555.13;4873063;29;20334;-81
2022/11/18 05:22:06;;;;;;;118.25;52.63;;;;;;;12.25;88.73;99505.88;4877928;29;20246;-82
2022/11/18 05:24:33;;;;;;;119.63;52.22;;;;;;;12.56;88.56;99523.69;4879171;29;20389;-78
2022/11/18 05:27:02;;;;;;;101.82;48.35;;;;;;;12.33;88.21;99524.47;4894535;29;20482;-79
2022/11/18 05:29:32;;;;;;;112.85;51.45;;;;;;;12.46;88.95;99545.19;4890766;29;20048;-80
2022/11/18 05:31:59;;;;;;;99.80;46.20;;;;;;;12.58;88.91;99558.94;4896031;29;20353;-80
2022/11/18 05:34:25;;;;;;;102.60;50.85;;;;;;;12.36;89.18;99549.91;4877576;29;20149;-81
2022/11/18 05:36:52;;;;;;;102.72;46.55;;;;;;;12.42;89.41;99565.16;4873897;29;20320;-82
2022/11/18 05:39:19;;;;;;;91.07;45.92;;;;;;;12.36;89.55;99544.59;4875718;29;20491;-80
2022/11/18 05:44:31;;;;;;;89.65;45.45;;;;;;;12.44;88.99;99544.53;4881140;29;20129;-82
2022/11/18 05:46:59;;;;;;;92.22;45.97;;;;;;;12.65;88.45;99575.06;4893237;29;20079;-81
2022/11/18 05:49:25;;;;;;;85.60;45.65;;;;;;;12.49;87.48;99555.47;4878798;29;20044;-79
2022/11/18 05:51:52;;;;;;;89.70;45.97;;;;;;;12.35;88.37;99543.72;4880050;29;20516;-81
2022/11/18 05:54:20;;;;;;;81.55;44.05;;;;;;;12.39;88.17;99549.56;4896281;29;20348;-80
2022/11/18 05:56:47;;;;;;;82.60;43.13;;;;;;;12.56;88.41;99587.56;4896369;29;20368;-80
2022/11/18 05:59:14;;;;;;;81.78;41.67;;;;;;;12.53;88.11;99578.09;4894285;28;20075;-79
2022/11/18 06:01:50;;;;;;;95.95;45.58;;;;;;;12.61;88.13;99602.00;4878054;29;20058;-81
2022/11/18 06:04:23;;;;;;;92.53;45.38;;;;;;;12.70;87.66;99605.47;4892032;29;20064;-80
2022/11/18 06:06:56;;;;;;;80.45;43.22;;;;;;;12.61;87.80;99617.97;4877405;29;20067;-80
2022/11/18 06:09:27;;;;;;;87.75;43.08;;;;;;;12.59;87.51;99619.97;4894791;29;20063;-82
2022/11/18 06:11:56;;;;;;;82.45;42.30;;;;;;;11.95;87.28;99515.47;4892443;29;20515;-82
2022/11/18 06:14:47;;;;;;;79.70;42.65;;;;;;;12.37;88.24;99594.13;4892821;29;20743;-80
2022/11/18 06:17:20;;;;;;;89.53;41.00;;;;;;;12.48;87.38;99600.94;4877292;29;20471;-81
2022/11/18 06:19:47;;;;;;;84.25;41.13;;;;;;;12.53;87.72;99602.06;4892593;29;20048;-82
2022/11/18 06:22:14;;;;;;;80.53;39.58;;;;;;;12.47;87.94;99613.38;4892777;29;20079;-80
2022/11/18 06:24:44;;;;;;;79.00;41.60;;;;;;;12.54;88.04;99624.19;4875432;29;20459;-80
2022/11/18 06:27:12;;;;;;;85.25;40.25;;;;;;;12.50;87.96;99629.03;4876120;29;20181;-81
2022/11/18 06:29:39;;;;;;;82.13;40.28;;;;;;;12.42;88.51;99606.94;4875394;29;20084;-81
2022/11/18 06:32:08;;;;;;;78.13;39.97;;;;;;;12.60;87.59;99631.50;4872577;29;20151;-80
2022/11/18 06:34:35;;;;;;;86.28;40.33;;;;;;;12.65;87.66;99634.47;4873072;29;20052;-78
2022/11/18 06:37:19;;;;;;;77.05;41.58;;;;;;;12.35;88.22;99604.94;4875249;29;20126;-79
2022/11/18 06:39:46;;;;;;;76.63;38.13;;;;;;;12.67;87.37;99642.25;4881415;29;20142;-80
2022/11/18 06:43:37;;;;;;;82.90;41.53;;;;;;;12.33;87.13;99596.31;4879691;29;20048;-81
2022/11/18 06:45:03;;;;;;;82.50;41.85;;;;;;;12.54;87.62;99643.63;4877190;29;20475;-79
2022/11/18 06:47:30;;;;;;;79.85;42.28;;;;;;;12.21;87.68;99596.84;4867012;29;20140;-81
2022/11/18 06:49:57;;;;;;;81.63;41.58;;;;;;;12.34;88.17;99631.75;4884367;29;20316;-79
2022/11/18 06:52:24;;;;;;;86.50;42.88;;;;;;;12.41;88.06;99648.69;4874303;29;20052;-79
2022/11/18 06:54:50;;;;;;;89.55;44.38;;;;;;;12.16;89.17;99613.31;4861402;29;20463;-80
2022/11/18 06:57:17;;;;;;;90.13;42.67;;;;;;;12.42;88.70;99650.34;4861475;29;20142;-80
2022/11/18 06:59:44;;;;;;;89.30;46.10;;;;;;;12.64;88.66;99683.38;4894229;29;20226;-78
2022/11/18 07:02:10;;;;;;;90.57;44.28;;;;;;;12.35;88.79;99633.41;4863681;29;20063;-78
2022/11/18 07:04:39;;;;;;;88.05;43.45;;;;;;;12.79;88.88;99681.66;4856910;29;20496;-80
2022/11/18 07:07:06;;;;;;;82.43;40.00;;;;;;;12.80;87.82;99667.34;4868230;29;20142;-79
2022/11/18 07:09:35;;;;;;;85.75;39.42;;;;;;;12.89;87.75;99681.44;4880914;29;20056;-79
2022/11/18 07:12:04;;;;;;;75.20;36.88;;;;;;;12.91;86.43;99678.59;4873838;29;20053;-79
2022/11/18 07:14:34;;;;;;;83.82;39.03;;;;;;;12.90;86.92;99679.63;4863532;29;20055;-80
2022/11/18 07:17:01;;;;;;;74.82;36.38;;;;;;;12.86;86.64;99676.44;4860455;29;20114;-80
2022/11/18 07:19:27;;;;;;;72.15;33.17;;;;;;;13.00;86.91;99681.03;4880620;29;20178;-79
2022/11/18 07:22:01;;;;;;;65.18;34.00;;;;;;;12.92;86.38;99673.09;4874160;29;20091;-81
2022/11/18 07:24:28;;;;;;;70.88;34.47;;;;;;;12.91;86.58;99666.09;4875186;29;20147;-78
2022/11/18 07:26:57;;;;;;;64.90;32.08;;;;;;;13.11;86.52;99681.69;4874437;29;20507;-80
2022/11/18 07:29:23;;;;;;;61.20;31.52;;;;;;;12.95;85.96;99651.44;4876377;29;20187;-79
2022/11/18 07:31:50;;;;;;;61.05;29.77;;;;;;;13.18;85.84;99682.59;4877594;29;20872;-80
2022/11/18 07:34:19;;;;;;;51.08;29.17;;;;;;;12.98;86.09;99651.09;4877112;29;20783;-80
2022/11/18 07:36:48;;;;;;;53.78;29.75;;;;;;;13.27;85.73;99684.25;4879229;29;20064;-78
2022/11/18 07:39:15;;;;;;;47.92;27.92;;;;;;;13.16;85.36;99671.31;4878566;29;20052;-81
2022/11/18 07:41:43;;;;;;;46.22;25.92;;;;;;;13.38;85.47;99694.53;4876791;29;20087;-80
2022/11/18 07:44:10;;;;;;;47.30;25.67;;;;;;;12.78;84.55;99607.25;4880594;29;20071;-80
2022/11/18 07:46:38;;;;;;;49.80;27.23;;;;;;;13.16;84.68;99658.00;4876306;29;20052;-80
2022/11/18 07:49:07;;;;;;;48.97;26.63;;;;;;;13.30;84.53;99683.06;4876827;29;20497;-80
2022/11/18 07:51:36;;;;;;;48.95;26.48;;;;;;;13.39;84.52;99692.69;4877350;29;20162;-80
2022/11/18 07:54:09;;;;;;;48.60;26.65;;;;;;;13.41;84.81;99691.50;4862506;29;20059;-79
2022/11/18 07:56:39;;;;;;;50.78;27.13;;;;;;;13.41;83.26;99688.84;4863239;29;20052;-78
2022/11/18 07:59:06;;;;;;;51.85;27.73;;;;;;;13.41;83.89;99694.16;4880008;29;20048;-76
2022/11/18 08:01:34;;;;;;;52.63;27.17;;;;;;;13.37;84.28;99690.19;4880197;29;20170;-78
2022/11/18 08:04:07;;;;;;;47.50;25.05;;;;;;;13.24;84.22;99655.28;4916624;29;20063;-78
2022/11/18 08:06:34;;;;;;;48.20;25.52;;;;;;;13.42;84.47;99669.19;4910015;29;20088;-77
2022/11/18 08:09:02;;;;;;;42.83;24.85;;;;;;;13.46;83.65;99680.31;4895587;29;20291;-79
2022/11/18 08:11:29;;;;;;;44.90;24.52;;;;;;;13.61;82.66;99672.34;4894018;29;20399;-79
2022/11/18 08:13:56;;;;;;;42.55;24.63;;;;;;;13.63;82.10;99670.34;4892469;29;20475;-79
2022/11/18 08:16:24;;;;;;;45.15;24.58;;;;;;;13.60;81.91;99662.72;4886376;29;20055;-78
2022/11/18 08:18:51;;;;;;;38.58;22.52;;;;;;;13.62;82.20;99679.38;4895944;29;20709;-80
2022/11/18 08:21:23;;;;;;;44.08;24.45;;;;;;;13.60;82.40;99670.72;4889469;29;20075;-79
2022/11/18 08:23:52;;;;;;;39.13;21.10;;;;;;;13.59;82.40;99666.38;4873325;29;20071;-80
2022/11/18 08:26:19;;;;;;;39.17;23.00;;;;;;;13.65;81.60;99657.66;4874792;29;20632;-81
2022/11/18 08:28:46;;;;;;;42.95;25.00;;;;;;;13.72;81.15;99668.47;4855031;29;20446;-80
2022/11/18 08:31:14;;;;;;;48.58;24.55;;;;;;;13.37;81.05;99612.88;4859629;29;20064;-77
2022/11/18 08:33:42;;;;;;;44.72;25.08;;;;;;;13.23;80.30;99601.13;4867993;29;20204;-81
2022/11/18 08:36:14;;;;;;;35.63;21.33;;;;;;;13.63;79.83;99670.34;4877992;29;20600;-80
2022/11/18 08:38:41;;;;;;;46.72;26.13;;;;;;;13.51;80.83;99671.78;4878166;29;20447;-78
2022/11/18 08:41:12;;;;;;;54.60;27.63;;;;;;;13.61;80.61;99677.69;4875376;29;20052;-78
2022/11/18 08:43:39;;;;;;;49.90;26.05;;;;;;;13.60;80.32;99686.72;4879654;29;20624;-78
2022/11/18 08:46:06;;;;;;;44.83;27.48;;;;;;;13.39;81.63;99674.84;4874935;29;20060;-79
2022/11/18 08:48:35;;;;;;;48.30;28.27;;;;;;;13.31;81.25;99663.44;4875030;29;20545;-79
2022/11/18 08:51:02;;;;;;;48.28;28.42;;;;;;;13.57;80.59;99682.56;4879138;29;20135;-80
2022/11/18 08:53:29;;;;;;;43.85;27.02;;;;;;;13.46;81.05;99683.78;4876630;29;20058;-80
2022/11/18 08:55:57;;;;;;;44.45;27.50;;;;;;;13.33;81.12;99638.25;4875905;29;20174;-78
2022/11/18 08:58:25;;;;;;;46.88;28.20;;;;;;;13.56;80.42;99669.41;4874253;29;20449;-77
2022/11/18 09:00:52;;;;;;;46.72;28.45;;;;;;;13.57;80.63;99677.25;4879484;29;20154;-77
2022/11/18 09:03:19;;;;;;;49.65;30.75;;;;;;;13.61;80.54;99667.03;4863676;29;20072;-78
2022/11/18 09:05:46;;;;;;;50.63;29.23;;;;;;;12.95;80.28;99563.53;4857286;29;20554;-79
2022/11/18 09:08:14;;;;;;;49.47;28.33;;;;;;;13.78;80.78;99694.41;4898652;29;20080;-80
2022/11/18 09:10:41;;;;;;;47.30;28.13;;;;;;;13.42;80.80;99634.53;4878541;29;20066;-79
2022/11/18 09:13:08;;;;;;;46.17;28.30;;;;;;;13.95;80.35;99714.59;4867538;29;20081;-79
2022/11/18 09:16:00;;;;;;;53.92;30.50;;;;;;;14.04;79.43;99702.03;4861162;29;20483;-78
2022/11/18 09:18:29;;;;;;;60.28;32.78;;;;;;;14.15;78.61;99703.41;4862716;29;20483;-79
2022/11/18 09:20:57;;;;;;;51.22;30.30;;;;;;;14.18;78.58;99689.72;4860935;29;20292;-80
2022/11/18 09:23:24;;;;;;;57.17;32.35;;;;;;;14.15;77.21;99682.91;4877970;29;20142;-77
2022/11/18 09:26:12;;;;;;;58.78;32.80;;;;;;;14.18;77.30;99695.88;4884280;29;20060;-77
2022/11/18 09:28:39;;;;;;;53.47;31.52;;;;;;;14.06;77.77;99670.66;4865608;29;20599;-80
2022/11/18 09:31:12;;;;;;;55.10;31.90;;;;;;;14.27;78.35;99710.81;4856442;29;20068;-78
2022/11/18 09:33:38;;;;;;;46.28;30.60;;;;;;;14.41;77.65;99716.34;4866393;29;20078;-80
2022/11/18 09:36:13;;;;;;;52.33;29.45;;;;;;;14.37;76.41;99736.38;4875432;29;20269;-79
2022/11/18 09:38:41;;;;;;;51.67;30.73;;;;;;;14.14;76.90;99720.44;4879610;29;20059;-80
2022/11/18 09:41:26;;;;;;;53.83;31.13;;;;;;;14.14;78.24;99731.94;4874915;29;20052;-79
2022/11/18 09:44:05;;;;;;;60.30;33.45;;;;;;;14.14;77.89;99723.13;4893388;29;20147;-78
2022/11/18 09:46:47;;;;;;;67.38;37.22;;;;;;;14.20;77.50;99731.22;4884700;29;20060;-78
2022/11/18 09:49:19;;;;;;;69.35;37.08;;;;;;;14.26;77.01;99735.00;4868957;29;20052;-80
2022/11/18 09:51:48;;;;;;;65.72;37.53;;;;;;;14.17;76.92;99710.22;4877320;29;20116;-81
2022/11/18 09:54:20;;;;;;;56.45;33.53;;;;;;;14.19;77.15;99708.19;4859251;29;20148;-81
2022/11/18 09:56:51;;;;;;;63.17;35.13;;;;;;;14.37;77.15;99723.03;4895824;29;20052;-78
2022/11/18 09:59:30;;;;;;;51.22;29.83;;;;;;;14.38;76.95;99712.19;4882341;29;20052;-79
2022/11/18 10:02:30;;;;;;;62.17;36.78;;;;;;;14.48;76.00;99717.25;4874282;29;20052;-80
2022/11/18 10:05:26;;;;;;;61.72;35.78;;;;;;;14.57;75.34;99726.06;4861407;29;20208;-79
2022/11/18 10:08:16;;;;;;;57.40;32.40;;;;;;;14.57;75.30;99728.72;4845672;29;20589;-77
2022/11/18 10:11:11;;;;;;;67.75;39.50;;;;;;;14.52;75.81;99727.41;4840287;29;20124;-79
2022/11/18 10:13:57;;;;;;;74.65;40.13;;;;;;;14.45;76.92;99728.31;4852370;29;20520;-77
2022/11/18 10:17:03;;;;;;;72.22;41.20;;;;;;;14.45;76.34;99729.16;4866951;29;20068;-78
2022/11/18 10:19:43;;;;;;;66.38;38.72;;;;;;;14.57;75.70;99737.56;4851141;29;20479;-81
2022/11/18 10:22:51;;;;;;;67.90;40.42;;;;;;;14.68;74.40;99737.09;4857782;29;20052;-79
2022/11/18 10:25:18;;;;;;;64.57;38.13;;;;;;;14.66;74.60;99731.13;4842158;29;20765;-78
2022/11/18 10:27:48;;;;;;;75.47;43.05;;;;;;;14.35;73.95;99666.34;4846015;29;20112;-78
2022/11/18 10:30:23;;;;;;;62.20;35.05;;;;;;;14.44;74.47;99674.09;4852886;29;20056;-80
2022/11/18 10:33:02;;;;;;;70.15;40.40;;;;;;;14.79;74.83;99721.63;4849333;29;20468;-79
2022/11/18 10:35:31;;;;;;;81.95;44.88;;;;;;;14.73;75.35;99699.13;4864362;29;20111;-79
2022/11/18 10:38:16;;;;;;;75.93;42.17;;;;;;;14.93;73.18;99704.75;4872240;29;20064;-79
2022/11/18 10:41:19;;;;;;;73.43;42.10;;;;;;;14.79;72.91;99662.84;4878466;29;20386;-77
2022/11/18 10:43:54;;;;;;;;;;;;;;;15.19;72.76;99709.56;4845223;29;20061;-80
2022/11/18 10:46:38;;;;;;;71.00;41.47;;;;;;;15.06;71.11;99678.19;4845251;29;20500;-79
2022/11/18 10:49:08;;;;;;;73.40;39.58;;;;;;;15.22;70.81;99708.38;4848568;29;20052;-78
2022/11/18 10:52:03;;;;;;;65.30;36.53;;;;;;;14.97;72.50;99673.97;4847310;29;20079;-78
2022/11/18 10:54:30;;;;;;;69.32;40.15;;;;;;;15.26;71.62;99707.81;4857528;29;20127;-77
2022/11/18 10:57:12;;;;;;;70.10;40.60;;;;;;;15.33;71.75;99721.25;4861903;29;20565;-78
2022/11/18 11:00:28;;;;;;;76.10;42.25;;;;;;;15.33;72.17;99711.38;4858146;29;20167;-78
2022/11/18 11:03:32;;;;;;;75.80;39.92;;;;;;;15.40;71.28;99716.81;4844114;29;20576;-80
2022/11/18 11:06:24;;;;;;;70.80;43.33;;;;;;;15.24;70.58;99695.66;4853142;29;20534;-77
2022/11/18 11:09:23;;;;;;;66.47;38.00;;;;;;;15.27;69.39;99705.97;4847034;29;20060;-81
2022/11/18 11:12:13;;;;;;;61.83;36.50;;;;;;;15.31;69.84;99732.13;4850384;29;20935;-78
2022/11/18 11:15:02;;;;;;;61.70;35.28;;;;;;;15.05;71.26;99719.31;4863547;29;20668;-78
2022/11/18 11:17:37;;;;;;;63.60;38.28;;;;;;;15.19;70.92;99730.97;4861193;29;20716;-79
2022/11/18 11:20:26;;;;;;;76.32;40.85;;;;;;;15.00;70.63;99702.16;4865392;29;20055;-78
2022/11/18 11:23:37;;;;;;;64.82;37.30;;;;;;;15.04;71.04;99725.66;4873451;29;20647;-79
2022/11/18 11:26:19;;;;;;;65.00;35.83;;;;;;;14.65;71.51;99676.03;4882128;29;20657;-77
2022/11/18 11:29:31;;;;;;;70.78;41.67;;;;;;;15.01;72.51;99733.22;4844087;29;20708;-76
2022/11/18 11:32:49;;;;;;;77.07;42.08;;;;;;;15.07;72.13;99722.63;4864568;29;20223;-78
2022/11/18 11:35:22;;;;;;;72.97;40.47;;;;;;;15.14;70.80;99703.97;4873377;29;20299;-78
2022/11/18 11:38:03;;;;;;;72.95;41.85;;;;;;;15.22;70.81;99722.59;4862601;29;20052;-79
2022/11/18 11:40:38;;;;;;;72.97;40.85;;;;;;;15.18;71.82;99724.78;4884645;29;20048;-77
2022/11/18 11:43:39;;;;;;;60.90;36.53;;;;;;;15.27;71.70;99728.19;4894287;29;20086;-77
2022/11/18 11:46:28;;;;;;;68.72;38.80;;;;;;;15.41;70.62;99722.97;4897548;29;20632;-78
2022/11/18 11:49:10;;;;;;;68.72;39.78;;;;;;;15.51;69.53;99724.34;4886043;29;20052;-78
2022/11/18 11:51:49;;;;;;;64.85;38.00;;;;;;;15.40;69.83;99727.50;4876098;29;20063;-78
2022/11/18 11:54:53;;;;;;;63.60;37.70;;;;;;;15.35;69.93;99720.06;4872297;29;20099;-78
2022/11/18 11:57:54;;;;;;;69.60;39.58;;;;;;;15.35;69.72;99727.25;4872180;29;20405;-78
2022/11/18 12:00:23;;;;;;;69.70;41.80;;;;;;;15.25;70.04;99724.06;4859189;29;20061;-77